createdAt,value
2023-01-11T00:00:51.160Z,9.42
2023-01-11T00:01:51.137Z,9.42
2023-01-11T00:02:51.149Z,9.42
2023-01-11T00:03:51.150Z,9.43
2023-01-11T00:04:51.137Z,9.45
2023-01-11T00:05:51.137Z,9.47
2023-01-11T00:06:51.150Z,9.49
2023-01-11T00:07:51.151Z,9.52
2023-01-11T00:08:51.138Z,9.52
2023-01-11T00:09:51.150Z,9.53
2023-01-11T00:10:51.150Z,9.54
2023-01-11T00:11:51.150Z,9.56
2023-01-11T00:12:51.137Z,9.6
2023-01-11T00:13:51.152Z,9.63
2023-01-11T00:14:51.152Z,9.66
2023-01-11T00:15:51.151Z,9.68
2023-01-11T00:16:51.139Z,9.67
2023-01-11T00:17:51.215Z,9.66
2023-01-11T00:18:51.153Z,9.68
2023-01-11T00:19:51.139Z,9.7
2023-01-11T00:20:51.140Z,9.7
2023-01-11T00:21:51.153Z,9.67
2023-01-11T00:22:51.153Z,9.64
2023-01-11T00:23:51.140Z,9.64
2023-01-11T00:24:51.153Z,9.67
2023-01-11T00:25:51.153Z,9.71
2023-01-11T00:26:51.153Z,9.76
2023-01-11T00:27:51.140Z,9.8
2023-01-11T00:28:51.153Z,9.84
2023-01-11T00:29:51.197Z,9.87
2023-01-11T00:30:51.154Z,9.92
2023-01-11T00:31:51.142Z,9.96
2023-01-11T00:32:51.154Z,9.89
2023-01-11T00:33:51.156Z,9.88
2023-01-11T00:34:51.154Z,9.87
2023-01-11T00:35:51.142Z,9.83
2023-01-11T00:36:51.218Z,9.77
2023-01-11T00:37:51.156Z,9.7
2023-01-11T00:38:51.142Z,9.67
2023-01-11T00:39:51.142Z,9.59
2023-01-11T00:40:51.156Z,9.53
2023-01-11T00:41:51.157Z,9.51
2023-01-11T00:42:51.143Z,9.47
2023-01-11T00:43:51.156Z,9.47
2023-01-11T00:44:51.155Z,9.51
2023-01-11T00:45:51.155Z,9.56
2023-01-11T00:46:51.143Z,9.6
2023-01-11T00:47:51.157Z,9.67
2023-01-11T00:48:51.200Z,9.68
2023-01-11T00:49:51.157Z,9.68
2023-01-11T00:50:51.144Z,9.68
2023-01-11T00:51:51.157Z,9.68
2023-01-11T00:52:51.158Z,9.68
2023-01-11T00:53:51.157Z,9.7
2023-01-11T00:54:51.145Z,9.7
2023-01-11T00:55:51.158Z,9.68
2023-01-11T00:56:51.158Z,9.67
2023-01-11T00:57:51.145Z,9.7
2023-01-11T00:58:51.145Z,9.74
2023-01-11T00:59:51.157Z,9.77
2023-01-11T01:00:51.198Z,9.8
2023-01-11T01:01:51.145Z,9.82
2023-01-11T01:02:51.159Z,9.83
2023-01-11T01:03:51.159Z,9.8
2023-01-11T01:04:51.158Z,9.78
2023-01-11T01:05:51.146Z,9.77
2023-01-11T01:06:51.159Z,9.75
2023-01-11T01:07:51.159Z,9.75
2023-01-11T01:08:51.159Z,9.77
2023-01-11T01:09:51.147Z,9.77
2023-01-11T01:10:51.159Z,9.76
2023-01-11T01:11:51.161Z,9.79
2023-01-11T01:12:51.147Z,9.83
2023-01-11T01:13:51.148Z,9.85
2023-01-11T01:14:51.161Z,9.85
2023-01-11T01:15:51.161Z,9.85
2023-01-11T01:16:51.146Z,9.85
2023-01-11T01:17:51.202Z,9.85
2023-01-11T01:18:51.161Z,9.88
2023-01-11T01:19:51.161Z,9.89
2023-01-11T01:20:51.148Z,9.93
2023-01-11T01:21:51.162Z,9.97
2023-01-11T01:22:51.162Z,9.96
2023-01-11T01:23:51.161Z,9.97
2023-01-11T01:24:51.148Z,9.97
2023-01-11T01:25:51.162Z,9.99
2023-01-11T01:26:51.163Z,9.99
2023-01-11T01:27:51.162Z,10.01
2023-01-11T01:28:51.150Z,10.02
2023-01-11T01:29:51.163Z,10.01
2023-01-11T01:30:51.163Z,10
2023-01-11T01:31:51.150Z,10
2023-01-11T01:32:51.149Z,9.99
2023-01-11T01:33:51.163Z,9.99
2023-01-11T01:34:51.164Z,10.01
2023-01-11T01:35:51.150Z,10.03
2023-01-11T01:36:51.151Z,10.03
2023-01-11T01:37:51.164Z,10.04
2023-01-11T01:38:51.164Z,10.07
2023-01-11T01:39:51.151Z,10.1
2023-01-11T01:40:51.164Z,10.1
2023-01-11T01:41:51.165Z,10.13
2023-01-11T01:42:51.165Z,10.14
2023-01-11T01:43:51.151Z,10.17
2023-01-11T01:44:51.165Z,10.17
2023-01-11T01:45:51.166Z,10.18
2023-01-11T01:46:51.165Z,10.21
2023-01-11T01:47:51.153Z,10.21
2023-01-11T01:48:51.166Z,10.21
2023-01-11T01:49:51.166Z,10.22
2023-01-11T01:50:51.153Z,10.22
2023-01-11T01:51:51.153Z,10.22
2023-01-11T01:52:51.166Z,10.2
2023-01-11T01:53:51.166Z,10.18
2023-01-11T01:54:51.153Z,10.18
2023-01-11T01:55:51.167Z,10.16
2023-01-11T01:56:51.166Z,10.13
2023-01-11T01:57:51.166Z,10.12
2023-01-11T01:58:51.154Z,10.12
2023-01-11T01:59:51.167Z,10.1
2023-01-11T02:00:51.231Z,10.08
2023-01-11T02:01:51.167Z,10.06
2023-01-11T02:02:51.155Z,10.02
2023-01-11T02:03:51.168Z,10.01
2023-01-11T02:04:51.169Z,10
2023-01-11T02:05:51.167Z,9.99
2023-01-11T02:06:51.156Z,9.93
2023-01-11T02:07:51.167Z,9.91
2023-01-11T02:08:51.169Z,9.89
2023-01-11T02:09:51.155Z,9.89
2023-01-11T02:10:51.156Z,9.87
2023-01-11T02:11:51.168Z,9.85
2023-01-11T02:12:51.194Z,9.88
2023-01-11T02:13:51.156Z,9.91
2023-01-11T02:14:51.170Z,9.95
2023-01-11T02:15:51.169Z,9.97
2023-01-11T02:16:51.170Z,10.01
2023-01-11T02:17:51.157Z,10.03
2023-01-11T02:18:51.169Z,10.04
2023-01-11T02:19:51.170Z,10.06
2023-01-11T02:20:51.170Z,10.07
2023-01-11T02:21:51.155Z,10.07
2023-01-11T02:22:51.171Z,10.06
2023-01-11T02:23:51.172Z,10.07
2023-01-11T02:24:51.158Z,10.08
2023-01-11T02:25:51.158Z,10.08
2023-01-11T02:26:51.170Z,10.09
2023-01-11T02:27:51.172Z,10.12
2023-01-11T02:28:51.157Z,10.13
2023-01-11T02:29:51.159Z,10.14
2023-01-11T02:30:51.172Z,10.14
2023-01-11T02:31:51.172Z,10.14
2023-01-11T02:32:51.159Z,10.18
2023-01-11T02:33:56.879Z,10.18
2023-01-11T02:34:51.172Z,10.18
2023-01-11T02:35:51.173Z,10.18
2023-01-11T02:36:51.159Z,10.2
2023-01-11T02:37:51.173Z,10.2
2023-01-11T02:38:51.216Z,10.18
2023-01-11T02:39:51.173Z,10.18
2023-01-11T02:40:51.161Z,10.18
2023-01-11T02:41:51.174Z,10.14
2023-01-11T02:42:51.175Z,10.14
2023-01-11T02:43:51.174Z,10.17
2023-01-11T02:44:51.161Z,10.18
2023-01-11T02:45:51.174Z,10.18
2023-01-11T02:46:51.175Z,10.17
2023-01-11T02:47:51.161Z,10.16
2023-01-11T02:48:51.160Z,10.14
2023-01-11T02:49:51.175Z,10.13
2023-01-11T02:50:51.215Z,10.13
2023-01-11T02:51:51.162Z,10.14
2023-01-11T02:52:51.175Z,10.17
2023-01-11T02:53:51.175Z,10.16
2023-01-11T02:54:51.174Z,10.17
2023-01-11T02:55:51.162Z,10.17
2023-01-11T02:56:51.176Z,10.16
2023-01-11T02:57:51.176Z,10.14
2023-01-11T02:58:51.175Z,10.14
2023-01-11T02:59:51.163Z,10.13
2023-01-11T03:00:51.175Z,10.12
2023-01-11T03:01:51.177Z,10.12
2023-01-11T03:02:51.162Z,10.12
2023-01-11T03:03:51.164Z,10.1
2023-01-11T03:04:51.176Z,10.1
2023-01-11T03:05:51.177Z,10.1
2023-01-11T03:06:51.164Z,10.1
2023-01-11T03:07:51.165Z,10.1
2023-01-11T03:08:51.177Z,10.12
2023-01-11T03:09:51.177Z,10.12
2023-01-11T03:10:51.164Z,10.1
2023-01-11T03:11:51.178Z,10.07
2023-01-11T03:12:51.177Z,10.06
2023-01-11T03:13:51.177Z,10.04
2023-01-11T03:14:51.163Z,10.01
2023-01-11T03:15:51.179Z,9.97
2023-01-11T03:16:51.178Z,9.93
2023-01-11T03:17:51.178Z,9.93
2023-01-11T03:18:51.166Z,9.93
2023-01-11T03:19:51.179Z,9.92
2023-01-11T03:20:51.180Z,9.92
2023-01-11T03:21:51.166Z,9.95
2023-01-11T03:22:51.167Z,9.93
2023-01-11T03:23:51.180Z,9.93
2023-01-11T03:24:51.180Z,9.93
2023-01-11T03:25:51.165Z,9.97
2023-01-11T03:26:51.180Z,9.96
2023-01-11T03:27:51.180Z,9.97
2023-01-11T03:28:51.180Z,10
2023-01-11T03:29:51.167Z,10
2023-01-11T03:30:51.181Z,9.99
2023-01-11T03:31:51.247Z,9.97
2023-01-11T03:32:51.181Z,9.96
2023-01-11T03:33:54.652Z,9.96
2023-01-11T03:34:51.181Z,9.96
2023-01-11T03:35:51.183Z,9.97
2023-01-11T03:36:51.182Z,10.01
2023-01-11T03:37:51.169Z,10.04
2023-01-11T03:38:51.182Z,10.04
2023-01-11T03:39:51.183Z,10.06
2023-01-11T03:40:51.169Z,10.08
2023-01-11T03:41:51.170Z,10.1
2023-01-11T03:42:51.183Z,10.14
2023-01-11T03:43:51.183Z,10.18
2023-01-11T03:44:51.170Z,10.22
2023-01-11T03:45:51.183Z,10.25
2023-01-11T03:46:51.183Z,10.27
2023-01-11T03:47:51.182Z,10.29
2023-01-11T03:48:51.170Z,10.29
2023-01-11T03:49:51.184Z,10.28
2023-01-11T03:50:51.228Z,10.31
2023-01-11T03:51:51.184Z,10.34
2023-01-11T03:52:51.171Z,10.36
2023-01-11T03:53:51.184Z,10.39
2023-01-11T03:54:51.184Z,10.43
2023-01-11T03:55:51.185Z,10.49
2023-01-11T03:56:51.172Z,10.53
2023-01-11T03:57:51.185Z,10.57
2023-01-11T03:58:51.186Z,10.61
2023-01-11T03:59:51.172Z,10.65
2023-01-11T04:00:51.173Z,10.69
2023-01-11T04:01:51.186Z,10.71
2023-01-11T04:02:51.227Z,10.76
2023-01-11T04:03:51.173Z,10.78
2023-01-11T04:04:51.186Z,10.78
2023-01-11T04:05:51.186Z,10.79
2023-01-11T04:06:51.186Z,10.8
2023-01-11T04:07:51.185Z,10.82
2023-01-11T04:08:51.187Z,10.82
2023-01-11T04:09:51.188Z,10.8
2023-01-11T04:10:51.186Z,10.81
2023-01-11T04:11:51.174Z,10.81
2023-01-11T04:12:51.187Z,10.81
2023-01-11T04:13:51.187Z,10.81
2023-01-11T04:14:51.174Z,10.81
2023-01-11T04:15:51.175Z,10.8
2023-01-11T04:16:51.188Z,10.78
2023-01-11T04:17:51.189Z,10.78
2023-01-11T04:18:51.173Z,10.78
2023-01-11T04:19:51.228Z,10.78
2023-01-11T04:20:51.189Z,10.78
2023-01-11T04:21:51.189Z,10.81
2023-01-11T04:22:51.176Z,10.81
2023-01-11T04:23:51.188Z,10.81
2023-01-11T04:24:51.189Z,10.82
2023-01-11T04:25:51.189Z,10.83
2023-01-11T04:26:51.177Z,10.83
2023-01-11T04:27:51.190Z,10.86
2023-01-11T04:28:51.191Z,10.88
2023-01-11T04:29:51.190Z,10.9
2023-01-11T04:30:51.177Z,10.91
2023-01-11T04:31:51.189Z,10.9
2023-01-11T04:32:51.190Z,10.92
2023-01-11T04:33:59.411Z,10.92
2023-01-11T04:34:51.178Z,10.92
2023-01-11T04:35:51.191Z,10.94
2023-01-11T04:36:51.191Z,10.95
2023-01-11T04:37:51.178Z,10.95
2023-01-11T04:39:00.448Z,10.95
2023-01-11T04:39:51.192Z,10.94
2023-01-11T04:40:51.192Z,10.93
2023-01-11T04:41:51.179Z,10.89
2023-01-11T04:42:51.192Z,10.85
2023-01-11T04:43:59.426Z,10.83
2023-01-11T04:44:51.191Z,10.84
2023-01-11T04:45:51.179Z,10.85
2023-01-11T04:46:51.193Z,10.88
2023-01-11T04:47:51.194Z,10.92
2023-01-11T04:48:51.192Z,10.97
2023-01-11T04:49:51.181Z,11
2023-01-11T04:50:51.193Z,11.01
2023-01-11T04:51:51.194Z,11.03
2023-01-11T04:52:51.180Z,11.04
2023-01-11T04:53:59.414Z,11.06
2023-01-11T04:54:51.193Z,11.07
2023-01-11T04:55:51.194Z,11.09
2023-01-11T04:56:51.181Z,11.11
2023-01-11T04:57:51.182Z,11.1
2023-01-11T04:58:51.194Z,11.1
2023-01-11T04:59:51.195Z,11.09
2023-01-11T05:00:51.182Z,11.09
2023-01-11T05:01:51.195Z,11.09
2023-01-11T05:02:51.194Z,11.07
2023-01-11T05:03:51.195Z,11.06
2023-01-11T05:04:51.182Z,11.05
2023-01-11T05:05:51.196Z,11.06
2023-01-11T05:06:51.197Z,11.08
2023-01-11T05:07:51.196Z,11.1
2023-01-11T05:08:51.184Z,11.11
2023-01-11T05:09:51.197Z,11.09
2023-01-11T05:10:51.198Z,11.08
2023-01-11T05:11:51.184Z,11.1
2023-01-11T05:12:51.184Z,11.09
2023-01-11T05:13:51.197Z,11.08
2023-01-11T05:14:51.198Z,11.1
2023-01-11T05:15:51.184Z,11.11
2023-01-11T05:16:51.238Z,11.13
2023-01-11T05:17:51.198Z,11.14
2023-01-11T05:18:51.197Z,11.17
2023-01-11T05:19:51.183Z,11.2
2023-01-11T05:20:51.198Z,11.23
2023-01-11T05:21:51.198Z,11.24
2023-01-11T05:22:51.199Z,11.25
2023-01-11T05:23:51.185Z,11.25
2023-01-11T05:24:51.199Z,11.23
2023-01-11T05:25:51.200Z,11.22
2023-01-11T05:26:51.199Z,11.24
2023-01-11T05:27:51.187Z,11.24
2023-01-11T05:28:51.199Z,11.21
2023-01-11T05:29:51.201Z,11.23
2023-01-11T05:30:51.187Z,11.24
2023-01-11T05:31:51.188Z,11.25
2023-01-11T05:32:51.199Z,11.26
2023-01-11T05:33:51.242Z,11.27
2023-01-11T05:34:51.187Z,11.28
2023-01-11T05:35:51.201Z,11.28
2023-01-11T05:36:51.200Z,11.29
2023-01-11T05:37:51.200Z,11.31
2023-01-11T05:38:51.188Z,11.32
2023-01-11T05:39:51.202Z,11.3
2023-01-11T05:40:51.203Z,11.28
2023-01-11T05:41:51.201Z,11.28
2023-01-11T05:42:51.189Z,11.28
2023-01-11T05:43:51.202Z,11.3
2023-01-11T05:44:51.203Z,11.33
2023-01-11T05:45:51.189Z,11.36
2023-01-11T05:46:51.190Z,11.39
2023-01-11T05:47:51.203Z,11.4
2023-01-11T05:48:51.203Z,11.42
2023-01-11T05:49:51.190Z,11.44
2023-01-11T05:50:51.268Z,11.45
2023-01-11T05:51:51.204Z,11.47
2023-01-11T05:52:51.203Z,11.5
2023-01-11T05:53:51.191Z,11.54
2023-01-11T05:54:51.204Z,11.55
2023-01-11T05:55:51.204Z,11.56
2023-01-11T05:56:51.205Z,11.58
2023-01-11T05:57:51.190Z,11.6
2023-01-11T05:58:51.205Z,11.61
2023-01-11T05:59:51.205Z,11.62
2023-01-11T06:00:51.204Z,11.64
2023-01-11T06:01:51.193Z,11.66
2023-01-11T06:02:51.206Z,11.69
2023-01-11T06:03:51.207Z,11.72
2023-01-11T06:04:51.206Z,11.74
2023-01-11T06:05:51.193Z,11.76
2023-01-11T06:06:51.206Z,11.76
2023-01-11T06:07:51.207Z,11.79
2023-01-11T06:08:51.193Z,11.83
2023-01-11T06:09:51.192Z,11.85
2023-01-11T06:10:51.206Z,11.88
2023-01-11T06:11:51.247Z,11.91
2023-01-11T06:12:51.194Z,11.94
2023-01-11T06:13:51.208Z,11.91
2023-01-11T06:14:51.208Z,11.89
2023-01-11T06:16:00.466Z,11.87
2023-01-11T06:16:51.195Z,11.83
2023-01-11T06:17:51.208Z,11.8
2023-01-11T06:18:51.212Z,11.77
2023-01-11T06:19:51.208Z,11.76
2023-01-11T06:20:51.196Z,11.75
2023-01-11T06:21:51.209Z,11.73
2023-01-11T06:22:51.210Z,11.72
2023-01-11T06:23:51.208Z,11.7
2023-01-11T06:24:51.197Z,11.69
2023-01-11T06:25:51.209Z,11.68
2023-01-11T06:26:51.210Z,11.69
2023-01-11T06:27:51.197Z,11.72
2023-01-11T06:28:51.198Z,11.73
2023-01-11T06:29:51.209Z,11.74
2023-01-11T06:30:51.212Z,11.76
2023-01-11T06:31:51.197Z,11.78
2023-01-11T06:32:51.211Z,11.8
2023-01-11T06:33:51.210Z,11.83
2023-01-11T06:34:51.211Z,11.85
2023-01-11T06:35:51.198Z,11.87
2023-01-11T06:36:51.212Z,11.89
2023-01-11T06:37:51.213Z,11.89
2023-01-11T06:38:51.212Z,11.92
2023-01-11T06:39:51.200Z,11.93
2023-01-11T06:40:51.213Z,11.94
2023-01-11T06:41:51.214Z,11.95
2023-01-11T06:42:51.199Z,11.97
2023-01-11T06:43:51.200Z,11.97
2023-01-11T06:44:51.213Z,11.98
2023-01-11T06:45:51.214Z,11.97
2023-01-11T06:46:51.200Z,11.98
2023-01-11T06:47:51.278Z,11.99
2023-01-11T06:48:51.214Z,12.01
2023-01-11T06:49:51.213Z,12.02
2023-01-11T06:50:51.201Z,12.02
2023-01-11T06:51:51.215Z,12
2023-01-11T06:52:51.215Z,11.98
2023-01-11T06:53:51.214Z,11.96
2023-01-11T06:54:51.202Z,11.93
2023-01-11T06:55:51.215Z,11.9
2023-01-11T06:56:51.215Z,11.88
2023-01-11T06:57:51.216Z,11.86
2023-01-11T06:58:51.203Z,11.83
2023-01-11T06:59:51.216Z,11.8
2023-01-11T07:00:51.217Z,11.78
2023-01-11T07:01:51.203Z,11.75
2023-01-11T07:02:51.204Z,11.71
2023-01-11T07:03:51.217Z,11.68
2023-01-11T07:04:51.217Z,11.67
2023-01-11T07:05:51.204Z,11.65
2023-01-11T07:06:51.218Z,11.62
2023-01-11T07:07:51.217Z,11.59
2023-01-11T07:08:51.217Z,11.57
2023-01-11T07:09:51.204Z,11.56
2023-01-11T07:10:51.218Z,11.53
2023-01-11T07:11:51.218Z,11.51
2023-01-11T07:12:51.217Z,11.48
2023-01-11T07:13:51.206Z,11.44
2023-01-11T07:14:51.218Z,11.4
2023-01-11T07:15:51.220Z,11.36
2023-01-11T07:16:51.218Z,11.34
2023-01-11T07:17:51.207Z,11.31
2023-01-11T07:18:51.219Z,11.29
2023-01-11T07:19:51.221Z,11.27
2023-01-11T07:20:51.206Z,11.27
2023-01-11T07:21:51.207Z,11.26
2023-01-11T07:22:51.219Z,11.24
2023-01-11T07:23:51.283Z,11.24
2023-01-11T07:24:51.207Z,11.24
2023-01-11T07:25:51.221Z,11.22
2023-01-11T07:26:51.221Z,11.2
2023-01-11T07:27:51.221Z,11.2
2023-01-11T07:28:51.208Z,11.19
2023-01-11T07:29:51.221Z,11.17
2023-01-11T07:30:51.223Z,11.17
2023-01-11T07:31:51.221Z,11.17
2023-01-11T07:32:51.209Z,11.17
2023-01-11T07:33:51.222Z,11.18
2023-01-11T07:34:51.222Z,11.19
2023-01-11T07:35:51.209Z,11.18
2023-01-11T07:36:51.210Z,11.18
2023-01-11T07:37:51.223Z,11.19
2023-01-11T07:38:51.223Z,11.2
2023-01-11T07:39:51.210Z,11.23
2023-01-11T07:40:51.287Z,11.23
2023-01-11T07:41:51.224Z,11.23
2023-01-11T07:42:51.223Z,11.24
2023-01-11T07:43:51.211Z,11.26
2023-01-11T07:44:51.224Z,11.27
2023-01-11T07:45:51.224Z,11.27
2023-01-11T07:46:51.224Z,11.27
2023-01-11T07:47:51.212Z,11.28
2023-01-11T07:48:51.225Z,11.27
2023-01-11T07:49:51.226Z,11.27
2023-01-11T07:50:51.225Z,11.29
2023-01-11T07:51:51.213Z,11.32
2023-01-11T07:52:51.226Z,11.34
2023-01-11T07:53:51.227Z,11.37
2023-01-11T07:54:51.212Z,11.4
2023-01-11T07:55:51.213Z,11.41
2023-01-11T07:56:51.225Z,11.42
2023-01-11T07:57:51.226Z,11.45
2023-01-11T07:58:51.213Z,11.48
2023-01-11T07:59:51.229Z,11.5
2023-01-11T08:00:51.227Z,11.52
2023-01-11T08:01:51.226Z,11.56
2023-01-11T08:02:51.214Z,11.6
2023-01-11T08:03:51.228Z,11.62
2023-01-11T08:04:51.228Z,11.63
2023-01-11T08:05:51.228Z,11.65
2023-01-11T08:06:51.227Z,11.67
2023-01-11T08:07:51.228Z,11.69
2023-01-11T08:08:51.228Z,11.72
2023-01-11T08:09:51.229Z,11.77
2023-01-11T08:10:51.216Z,11.8
2023-01-11T08:11:51.229Z,11.83
2023-01-11T08:12:51.230Z,11.86
2023-01-11T08:13:51.214Z,11.89
2023-01-11T08:14:51.217Z,11.92
2023-01-11T08:15:51.230Z,11.96
2023-01-11T08:16:51.231Z,11.99
2023-01-11T08:17:51.217Z,12.03
2023-01-11T08:18:51.272Z,12.08
2023-01-11T08:19:51.230Z,12.13
2023-01-11T08:20:51.230Z,12.17
2023-01-11T08:21:51.217Z,12.24
2023-01-11T08:22:51.231Z,12.27
2023-01-11T08:23:51.230Z,12.3
2023-01-11T08:24:51.231Z,12.35
2023-01-11T08:25:51.219Z,12.39
2023-01-11T08:26:51.231Z,12.42
2023-01-11T08:27:51.232Z,12.43
2023-01-11T08:28:51.232Z,12.45
2023-01-11T08:29:51.220Z,12.47
2023-01-11T08:30:51.231Z,12.48
2023-01-11T08:31:51.233Z,12.49
2023-01-11T08:32:51.220Z,12.48
2023-01-11T08:33:51.220Z,12.46
2023-01-11T08:34:51.233Z,12.45
2023-01-11T08:35:51.234Z,12.45
2023-01-11T08:36:51.220Z,12.45
2023-01-11T08:37:51.234Z,12.45
2023-01-11T08:38:51.234Z,12.47
2023-01-11T08:39:51.234Z,12.5
2023-01-11T08:40:51.219Z,12.54
2023-01-11T08:41:51.235Z,12.56
2023-01-11T08:42:51.236Z,12.6
2023-01-11T08:43:51.234Z,12.64
2023-01-11T08:44:51.222Z,12.64
2023-01-11T08:45:51.234Z,12.64
2023-01-11T08:46:51.236Z,12.66
2023-01-11T08:47:51.222Z,12.7
2023-01-11T08:48:51.223Z,12.75
2023-01-11T08:49:51.235Z,12.78
2023-01-11T08:50:51.236Z,12.81
2023-01-11T08:51:51.223Z,12.79
2023-01-11T08:52:51.224Z,12.77
2023-01-11T08:53:51.237Z,12.77
2023-01-11T08:54:51.237Z,12.79
2023-01-11T08:55:51.224Z,12.77
2023-01-11T08:56:51.238Z,12.76
2023-01-11T08:57:51.238Z,12.79
2023-01-11T08:58:51.237Z,12.84
2023-01-11T08:59:51.224Z,12.87
2023-01-11T09:00:51.238Z,12.85
2023-01-11T09:01:51.238Z,12.84
2023-01-11T09:02:51.238Z,12.83
2023-01-11T09:03:51.225Z,12.81
2023-01-11T09:04:51.239Z,12.77
2023-01-11T09:05:51.239Z,12.77
2023-01-11T09:06:51.224Z,12.78
2023-01-11T09:07:51.227Z,12.81
2023-01-11T09:08:51.240Z,12.83
2023-01-11T09:09:51.241Z,12.86
2023-01-11T09:10:51.225Z,12.88
2023-01-11T09:11:51.225Z,12.92
2023-01-11T09:12:51.241Z,12.94
2023-01-11T09:13:51.241Z,12.97
2023-01-11T09:14:51.228Z,12.99
2023-01-11T09:15:51.241Z,13
2023-01-11T09:16:51.242Z,12.99
2023-01-11T09:17:51.242Z,12.99
2023-01-11T09:18:51.229Z,13
2023-01-11T09:19:51.242Z,13
2023-01-11T09:20:51.242Z,12.99
2023-01-11T09:21:51.241Z,13.02
2023-01-11T09:22:51.230Z,13.04
2023-01-11T09:23:51.243Z,13.07
2023-01-11T09:24:51.244Z,13.14
2023-01-11T09:25:51.230Z,13.19
2023-01-11T09:26:51.231Z,13.26
2023-01-11T09:27:51.243Z,13.34
2023-01-11T09:28:51.244Z,13.37
2023-01-11T09:29:51.231Z,13.41
2023-01-11T09:30:51.286Z,13.46
2023-01-11T09:31:51.245Z,13.51
2023-01-11T09:32:51.245Z,13.51
2023-01-11T09:33:51.230Z,13.53
2023-01-11T09:34:51.245Z,13.58
2023-01-11T09:35:51.245Z,13.65
2023-01-11T09:36:51.245Z,13.73
2023-01-11T09:37:51.233Z,13.78
2023-01-11T09:38:51.246Z,13.8
2023-01-11T09:39:51.247Z,13.84
2023-01-11T09:40:51.247Z,13.86
2023-01-11T09:41:51.234Z,13.84
2023-01-11T09:42:51.247Z,13.82
2023-01-11T09:43:51.247Z,13.81
2023-01-11T09:44:51.234Z,13.83
2023-01-11T09:45:51.235Z,13.83
2023-01-11T09:46:51.248Z,13.82
2023-01-11T09:47:51.249Z,13.81
2023-01-11T09:49:51.251Z,13.84
2023-01-11T09:50:51.249Z,13.85
2023-01-11T09:51:51.248Z,13.86
2023-01-11T09:52:51.236Z,13.84
2023-01-11T09:53:51.249Z,13.85
2023-01-11T09:54:51.249Z,13.88
2023-01-11T09:55:51.249Z,13.91
2023-01-11T09:56:51.236Z,13.89
2023-01-11T09:57:51.250Z,13.84
2023-01-11T09:58:51.251Z,13.84
2023-01-11T09:59:51.250Z,13.83
2023-01-11T10:00:51.238Z,13.85
2023-01-11T10:01:51.250Z,13.86
2023-01-11T10:02:51.252Z,13.9
2023-01-11T10:03:51.236Z,13.93
2023-01-11T10:04:51.237Z,13.96
2023-01-11T10:05:51.252Z,13.97
2023-01-11T10:06:51.252Z,14.01
2023-01-11T10:07:51.239Z,14.07
2023-01-11T10:08:51.255Z,14.12
2023-01-11T10:09:51.253Z,14.19
2023-01-11T10:10:51.252Z,14.23
2023-01-11T10:11:51.240Z,14.26
2023-01-11T10:12:51.254Z,14.27
2023-01-11T10:13:51.253Z,14.3
2023-01-11T10:14:51.253Z,14.36
2023-01-11T10:15:51.242Z,14.4
2023-01-11T10:16:51.254Z,14.45
2023-01-11T10:17:51.255Z,14.45
2023-01-11T10:18:51.255Z,14.44
2023-01-11T10:19:51.242Z,14.42
2023-01-11T10:20:51.297Z,14.39
2023-01-11T10:21:51.257Z,14.38
2023-01-11T10:22:51.242Z,14.37
2023-01-11T10:23:51.243Z,14.37
2023-01-11T10:24:51.256Z,14.38
2023-01-11T10:25:51.258Z,14.4
2023-01-11T10:26:51.243Z,14.43
2023-01-11T10:27:51.257Z,14.45
2023-01-11T10:28:51.257Z,14.44
2023-01-11T10:29:51.256Z,14.42
2023-01-11T10:30:51.244Z,14.43
2023-01-11T10:32:51.259Z,14.46
2023-01-11T10:33:51.258Z,14.49
2023-01-11T10:34:51.244Z,14.49
2023-01-11T10:36:51.260Z,14.43
2023-01-11T10:37:51.246Z,14.41
2023-01-11T10:38:51.247Z,14.37
2023-01-11T10:39:51.259Z,14.29
2023-01-11T10:40:51.260Z,14.25
2023-01-11T10:41:51.247Z,14.25
2023-01-11T10:42:51.248Z,14.23
2023-01-11T10:43:51.261Z,14.2
2023-01-11T10:44:51.260Z,14.18
2023-01-11T10:45:51.246Z,14.12
2023-01-11T10:46:51.261Z,14.04
2023-01-11T10:47:51.261Z,13.97
2023-01-11T10:48:51.262Z,13.94
2023-01-11T10:49:51.249Z,13.97
2023-01-11T10:50:51.262Z,14.01
2023-01-11T10:51:51.262Z,14.04
2023-01-11T10:52:51.263Z,14.05
2023-01-11T10:53:51.250Z,14.04
2023-01-11T10:54:51.263Z,14.04
2023-01-11T10:55:51.264Z,14.06
2023-01-11T10:56:51.250Z,14.06
2023-01-11T10:57:51.251Z,14.03
2023-01-11T10:58:51.264Z,14.02
2023-01-11T10:59:51.265Z,14.03
2023-01-11T11:00:51.251Z,14.05
2023-01-11T11:01:51.307Z,14.06
2023-01-11T11:02:51.264Z,14.08
2023-01-11T11:03:51.265Z,14.1
2023-01-11T11:04:56.892Z,14.11
2023-01-11T11:05:51.266Z,14.11
2023-01-11T11:06:51.266Z,14.1
2023-01-11T11:07:51.265Z,14.1
2023-01-11T11:08:51.253Z,14.11
2023-01-11T11:09:51.266Z,14.12
2023-01-11T11:10:51.267Z,14.17
2023-01-11T11:11:51.266Z,14.22
2023-01-11T11:12:51.255Z,14.26
2023-01-11T11:13:51.268Z,14.29
2023-01-11T11:14:51.268Z,14.32
2023-01-11T11:15:51.268Z,14.38
2023-01-11T11:17:51.268Z,14.45
2023-01-11T11:18:51.269Z,14.44
2023-01-11T11:19:51.256Z,14.42
2023-01-11T11:20:51.256Z,14.4
2023-01-11T11:22:51.270Z,14.36
2023-01-11T11:23:51.256Z,14.37
2023-01-11T11:24:51.270Z,14.35
2023-01-11T11:25:51.270Z,14.35
2023-01-11T11:26:51.271Z,14.39
2023-01-11T11:27:51.257Z,14.44
2023-01-11T11:28:51.271Z,14.48
2023-01-11T11:29:51.271Z,14.51
2023-01-11T11:30:51.270Z,14.5
2023-01-11T11:31:51.259Z,14.49
2023-01-11T11:32:51.272Z,14.49
2023-01-11T11:33:51.273Z,14.47
2023-01-11T11:34:51.259Z,14.44
2023-01-11T11:35:51.260Z,14.41
2023-01-11T11:36:51.273Z,14.38
2023-01-11T11:37:51.273Z,14.33
2023-01-11T11:38:51.260Z,14.32
2023-01-11T11:40:51.274Z,14.32
2023-01-11T11:41:51.273Z,14.35
2023-01-11T11:42:51.261Z,14.39
2023-01-11T11:43:51.274Z,14.42
2023-01-11T11:44:51.340Z,14.42
2023-01-11T11:45:51.274Z,14.4
2023-01-11T11:46:51.262Z,14.36
2023-01-11T11:47:51.275Z,14.34
2023-01-11T11:48:51.277Z,14.31
2023-01-11T11:49:51.276Z,14.27
2023-01-11T11:50:51.263Z,14.23
2023-01-11T11:51:51.276Z,14.22
2023-01-11T11:52:51.276Z,14.23
2023-01-11T11:53:51.262Z,14.21
2023-01-11T11:54:51.264Z,14.16
2023-01-11T11:55:51.277Z,14.09
2023-01-11T11:56:51.301Z,14.08
2023-01-11T11:58:51.277Z,14.04
2023-01-11T11:59:51.278Z,14.04
2023-01-11T12:00:51.278Z,14.04
2023-01-11T12:01:51.265Z,14.01
2023-01-11T12:02:51.279Z,13.98
2023-01-11T12:04:54.670Z,13.98
2023-01-11T12:05:51.267Z,13.99
2023-01-11T12:06:51.280Z,14.01
2023-01-11T12:07:51.280Z,14.03
2023-01-11T12:08:51.279Z,14.05
2023-01-11T12:09:51.268Z,14.05
2023-01-11T12:10:51.345Z,14.04
2023-01-11T12:11:51.282Z,14.05
2023-01-11T12:12:51.268Z,14.08
2023-01-11T12:13:51.268Z,14.11
2023-01-11T12:14:51.282Z,14.09
2023-01-11T12:16:51.269Z,14.1
2023-01-11T12:17:51.282Z,14.11
2023-01-11T12:18:51.281Z,14.09
2023-01-11T12:19:51.282Z,14.04
2023-01-11T12:20:51.270Z,14.01
2023-01-11T12:21:51.283Z,13.99
2023-01-11T12:22:51.327Z,13.98
2023-01-11T12:23:51.282Z,13.97
2023-01-11T12:24:51.271Z,13.96
2023-01-11T12:25:51.284Z,13.95
2023-01-11T12:26:51.285Z,13.94
2023-01-11T12:27:51.283Z,13.96
2023-01-11T12:28:51.272Z,13.94
2023-01-11T12:29:51.284Z,13.93
2023-01-11T12:30:51.285Z,13.92
2023-01-11T12:31:51.270Z,13.91
2023-01-11T12:32:51.273Z,13.89
2023-01-11T12:34:51.326Z,13.91
2023-01-11T12:35:51.271Z,13.92
2023-01-11T12:36:51.286Z,13.93
2023-01-11T12:37:51.287Z,13.99
2023-01-11T12:38:51.287Z,14.03
2023-01-11T12:39:51.274Z,14.06
2023-01-11T12:40:51.287Z,14.08
2023-01-11T12:41:51.289Z,14.06
2023-01-11T12:42:51.288Z,14.05
2023-01-11T12:43:51.275Z,14.07
2023-01-11T12:44:51.288Z,14.11
2023-01-11T12:45:51.288Z,14.17
2023-01-11T12:46:51.275Z,14.19
2023-01-11T12:47:51.276Z,14.19
2023-01-11T12:48:51.289Z,14.21
2023-01-11T12:49:51.289Z,14.23
2023-01-11T12:50:51.276Z,14.24
2023-01-11T12:51:51.277Z,14.25
2023-01-11T12:52:51.290Z,14.24
2023-01-11T12:53:51.290Z,14.23
2023-01-11T12:54:51.277Z,14.24
2023-01-11T12:55:51.291Z,14.26
2023-01-11T12:56:51.291Z,14.29
2023-01-11T12:57:51.291Z,14.3
2023-01-11T12:58:51.279Z,14.28
2023-01-11T12:59:51.292Z,14.27
2023-01-11T13:00:51.293Z,14.28
2023-01-11T13:01:51.291Z,14.28
2023-01-11T13:02:51.280Z,14.3
2023-01-11T13:03:51.293Z,14.31
2023-01-11T13:04:59.529Z,14.27
2023-01-11T13:05:51.293Z,14.25
2023-01-11T13:06:51.281Z,14.24
2023-01-11T13:07:51.294Z,14.23
2023-01-11T13:08:51.294Z,14.2
2023-01-11T13:09:51.281Z,14.17